Time;durP1;ratioP1;P1;durP2;ratioP2;P2;SDS_P1;SDS_P2;PMS_P1;PMS_P2;Temp;Humidity;BMP_temperature;BMP_pressure;BME280_temperature;BME280_humidity;BME280_pressure;Samples;Min_cycle;Max_cycle;Signal;HPM_P1;HPM_P2
2021/05/14 00:01:54;;;;;;;21.00;14.40;;;12.70;75.00;;;;;;5116437;28;20182;-86
2021/05/14 00:04:21;;;;;;;19.00;12.93;;;12.60;75.40;;;;;;5116239;28;20226;-86
2021/05/14 00:06:47;;;;;;;21.88;13.98;;;12.50;75.90;;;;;;5118832;28;20172;-86
2021/05/14 00:09:14;;;;;;;24.23;16.85;;;12.70;76.20;;;;;;5119518;28;20197;-85
2021/05/14 00:11:40;;;;;;;24.52;16.20;;;12.90;75.80;;;;;;5117437;28;20179;-86
2021/05/14 00:14:06;;;;;;;27.05;15.98;;;12.90;75.40;;;;;;5118483;28;20177;-85
2021/05/14 00:16:32;;;;;;;24.60;15.32;;;12.90;75.90;;;;;;5119039;28;20304;-86
2021/05/14 00:18:59;;;;;;;25.60;14.93;;;12.90;75.10;;;;;;5117186;28;20215;-85
2021/05/14 00:21:27;;;;;;;30.27;17.25;;;12.90;75.10;;;;;;5116786;28;20179;-85
2021/05/14 00:23:53;;;;;;;27.88;16.80;;;12.70;75.00;;;;;;5117293;28;20203;-86
2021/05/14 00:26:18;;;;;;;32.27;19.47;;;12.80;75.10;;;;;;5115753;28;20173;-85
2021/05/14 00:28:44;;;;;;;27.30;15.10;;;12.80;75.10;;;;;;5117292;28;20193;-85
2021/05/14 00:31:10;;;;;;;24.30;15.13;;;12.90;75.00;;;;;;5117661;28;20167;-86
2021/05/14 00:33:36;;;;;;;26.17;15.35;;;12.80;74.90;;;;;;5117379;28;20221;-86
2021/05/14 00:36:02;;;;;;;29.27;17.77;;;12.60;75.30;;;;;;5120186;28;20187;-86
2021/05/14 00:38:28;;;;;;;30.45;17.17;;;12.40;75.80;;;;;;5122995;28;20179;-85
2021/05/14 00:40:54;;;;;;;28.10;17.77;;;12.60;76.10;;;;;;5118950;28;20175;-85
2021/05/14 00:43:20;;;;;;;27.98;17.05;;;12.70;76.10;;;;;;5117127;28;20658;-85
2021/05/14 00:45:46;;;;;;;30.90;17.33;;;12.70;75.80;;;;;;5118823;28;20328;-86
2021/05/14 00:48:12;;;;;;;32.00;19.20;;;12.70;75.60;;;;;;5117505;28;20180;-85
2021/05/14 00:50:37;;;;;;;30.37;19.03;;;12.80;75.40;;;;;;5120168;28;20239;-85
2021/05/14 00:53:04;;;;;;;31.77;17.80;;;12.70;75.10;;;;;;5126010;28;20252;-86
2021/05/14 00:55:30;;;;;;;31.98;18.20;;;12.70;74.90;;;;;;5133457;28;20222;-87
2021/05/14 00:57:56;;;;;;;32.37;16.40;;;12.70;74.90;;;;;;5138915;28;20164;-84
2021/05/14 01:00:22;;;;;;;29.13;17.75;;;12.70;74.90;;;;;;5139950;28;20412;-85
2021/05/14 01:02:51;;;;;;;29.23;17.30;;;12.70;74.90;;;;;;5139060;28;20187;-86
2021/05/14 01:05:18;;;;;;;22.95;14.73;;;12.60;74.80;;;;;;5122750;28;20210;-87
2021/05/14 01:07:43;;;;;;;33.13;19.05;;;12.50;75.20;;;;;;5117592;28;20175;-87
2021/05/14 01:10:10;;;;;;;30.50;16.80;;;12.50;75.20;;;;;;5117611;28;20274;-86
2021/05/14 01:12:36;;;;;;;30.38;17.60;;;12.60;75.10;;;;;;5117006;28;20474;-87
2021/05/14 01:15:02;;;;;;;28.10;16.97;;;12.60;75.10;;;;;;5118013;28;20179;-87
2021/05/14 01:17:30;;;;;;;27.33;15.90;;;12.50;75.00;;;;;;5119435;28;20405;-86
2021/05/14 01:19:56;;;;;;;33.25;17.88;;;12.50;75.80;;;;;;5118906;28;20175;-86
2021/05/14 01:22:25;;;;;;;29.38;20.17;;;12.50;75.10;;;;;;5118326;28;20198;-86
2021/05/14 01:24:51;;;;;;;26.50;16.40;;;12.50;75.10;;;;;;5119765;28;20203;-87
2021/05/14 01:27:17;;;;;;;30.67;17.17;;;12.50;75.30;;;;;;5123203;28;20588;-87
2021/05/14 01:29:43;;;;;;;26.67;16.30;;;12.40;75.10;;;;;;5138279;28;20416;-86
2021/05/14 01:32:09;;;;;;;28.10;16.67;;;12.30;75.20;;;;;;5137070;28;20472;-87
2021/05/14 01:34:35;;;;;;;29.30;17.30;;;12.30;75.50;;;;;;5131078;28;20163;-87
2021/05/14 01:37:01;;;;;;;27.27;16.77;;;12.40;75.50;;;;;;5117841;28;20242;-88
2021/05/14 01:39:27;;;;;;;32.40;18.80;;;12.30;75.40;;;;;;5117173;28;20498;-86
2021/05/14 01:41:54;;;;;;;26.38;16.63;;;12.30;75.70;;;;;;5114623;28;20543;-86
2021/05/14 01:44:23;;;;;;;23.67;15.02;;;12.30;75.60;;;;;;5117305;28;20206;-86
2021/05/14 01:46:49;;;;;;;25.80;15.93;;;12.20;75.60;;;;;;5119168;28;20178;-86
2021/05/14 01:49:15;;;;;;;26.15;15.45;;;12.40;75.20;;;;;;5118343;28;20182;-86
2021/05/14 01:51:41;;;;;;;30.53;15.90;;;12.50;74.60;;;;;;5120904;28;20171;-86
2021/05/14 01:54:07;;;;;;;27.03;15.20;;;12.20;74.30;;;;;;5122332;28;20198;-87
2021/05/14 01:56:33;;;;;;;28.90;17.03;;;12.00;74.70;;;;;;5122159;28;20421;-87
2021/05/14 01:58:58;;;;;;;30.00;15.70;;;12.00;75.10;;;;;;5119040;28;20225;-88
2021/05/14 02:01:25;;;;;;;28.53;16.53;;;11.90;75.50;;;;;;5114943;28;20416;-87
2021/05/14 02:03:52;;;;;;;26.33;16.05;;;11.90;75.90;;;;;;5117852;28;20855;-87
2021/05/14 02:06:18;;;;;;;35.20;16.13;;;11.90;75.80;;;;;;5115824;28;20551;-87
2021/05/14 02:08:44;;;;;;;28.67;16.33;;;12.00;75.70;;;;;;5116129;28;20182;-87
2021/05/14 02:11:10;;;;;;;28.27;16.23;;;11.80;75.50;;;;;;5115748;28;20558;-88
2021/05/14 02:13:40;;;;;;;28.25;17.25;;;11.70;76.00;;;;;;5116216;28;21170;-87
2021/05/14 02:16:07;;;;;;;24.20;15.60;;;11.70;76.40;;;;;;5116167;28;20209;-88
2021/05/14 02:18:35;;;;;;;32.50;17.90;;;11.80;77.10;;;;;;5116007;28;20243;-87
2021/05/14 02:21:01;;;;;;;27.77;16.80;;;11.90;76.30;;;;;;5114553;28;20203;-88
2021/05/14 02:23:27;;;;;;;30.23;17.27;;;11.90;76.00;;;;;;5115968;28;20191;-88
2021/05/14 02:25:54;;;;;;;37.22;18.35;;;11.90;75.80;;;;;;5114418;28;20179;-87
2021/05/14 02:28:20;;;;;;;32.88;19.15;;;11.70;75.90;;;;;;5114849;28;20175;-87
2021/05/14 02:30:46;;;;;;;36.47;19.90;;;11.70;76.40;;;;;;5114388;28;20187;-87
2021/05/14 02:33:11;;;;;;;34.08;18.17;;;11.70;76.60;;;;;;5114469;28;20685;-87
2021/05/14 02:35:37;;;;;;;39.20;20.50;;;11.70;76.80;;;;;;5114328;28;20183;-87
2021/05/14 02:38:04;;;;;;;33.93;19.57;;;11.70;76.80;;;;;;5114907;28;20182;-87
2021/05/14 02:40:30;;;;;;;33.20;20.30;;;11.80;76.80;;;;;;5113840;28;20172;-87
2021/05/14 02:42:56;;;;;;;33.93;19.50;;;11.80;76.70;;;;;;5114289;28;20536;-87
2021/05/14 02:45:22;;;;;;;37.27;21.33;;;11.70;76.70;;;;;;5113974;28;20452;-87
2021/05/14 02:47:48;;;;;;;43.92;24.52;;;11.60;76.80;;;;;;5115610;28;20957;-87
2021/05/14 02:50:14;;;;;;;37.07;20.03;;;11.70;77.10;;;;;;5114681;28;20180;-86
2021/05/14 02:52:40;;;;;;;35.53;21.00;;;11.80;77.10;;;;;;5113903;28;20187;-87
2021/05/14 02:55:07;;;;;;;39.23;22.73;;;11.90;76.90;;;;;;5114515;28;20176;-87
2021/05/14 02:57:33;;;;;;;43.05;23.80;;;11.80;76.50;;;;;;5121358;28;20425;-86
2021/05/14 02:59:59;;;;;;;39.90;22.98;;;11.90;76.50;;;;;;5130945;28;20270;-87
2021/05/14 03:02:25;;;;;;;36.37;21.47;;;11.80;76.20;;;;;;5121146;28;20222;-87
2021/05/14 03:04:50;;;;;;;38.13;22.27;;;11.80;76.40;;;;;;5124111;28;20475;-87
2021/05/14 03:07:16;;;;;;;35.83;21.87;;;11.90;76.50;;;;;;5123782;28;20173;-87
2021/05/14 03:09:42;;;;;;;37.30;21.23;;;11.80;76.40;;;;;;5118993;28;20172;-86
2021/05/14 03:12:08;;;;;;;35.27;22.30;;;11.80;76.40;;;;;;5127834;28;20425;-86
2021/05/14 03:14:34;;;;;;;39.30;22.35;;;11.70;76.50;;;;;;5126686;28;20413;-87
2021/05/14 03:17:00;;;;;;;35.83;20.92;;;11.80;76.30;;;;;;5126506;28;20183;-86
2021/05/14 03:19:26;;;;;;;37.00;21.90;;;11.60;76.20;;;;;;5136887;28;20235;-86
2021/05/14 03:21:53;;;;;;;38.93;23.50;;;11.40;76.70;;;;;;5127328;28;20404;-86
2021/05/14 03:24:19;;;;;;;36.67;21.80;;;11.30;77.20;;;;;;5126676;28;20952;-87
2021/05/14 03:26:47;;;;;;;40.42;22.75;;;11.30;77.60;;;;;;5120597;28;20186;-87
2021/05/14 03:29:13;;;;;;;41.35;23.25;;;11.20;77.90;;;;;;5121340;28;20199;-87
2021/05/14 03:31:39;;;;;;;39.97;22.90;;;11.30;78.90;;;;;;5127746;28;20209;-85
2021/05/14 03:34:05;;;;;;;36.63;20.00;;;11.30;78.10;;;;;;5125271;28;20958;-86
2021/05/14 03:36:30;;;;;;;38.43;22.97;;;11.20;78.10;;;;;;5126625;28;20190;-87
2021/05/14 03:38:57;;;;;;;40.37;22.70;;;11.10;78.20;;;;;;5120855;28;20417;-87
2021/05/14 03:43:54;;;;;;;41.28;24.50;;;11.10;78.60;;;;;;5120547;28;20574;-87
2021/05/14 03:46:20;;;;;;;47.60;24.40;;;11.10;78.80;;;;;;5123947;28;20171;-87
2021/05/14 03:48:46;;;;;;;43.22;25.73;;;11.20;78.90;;;;;;5132245;28;20204;-87
2021/05/14 03:51:12;;;;;;;38.40;22.20;;;11.20;78.80;;;;;;5133073;28;20168;-86
2021/05/14 03:53:38;;;;;;;47.17;24.90;;;11.20;78.80;;;;;;5129545;28;20215;-87
2021/05/14 03:56:04;;;;;;;42.20;22.50;;;11.10;78.80;;;;;;5119232;28;20172;-87
2021/05/14 03:58:29;;;;;;;43.43;22.40;;;11.20;78.80;;;;;;5125229;28;20195;-87
2021/05/14 04:00:55;;;;;;;40.90;23.97;;;11.10;78.80;;;;;;5129293;28;20440;-87
2021/05/14 04:03:22;;;;;;;41.40;23.60;;;11.10;79.00;;;;;;5133512;28;20270;-88
2021/05/14 04:05:49;;;;;;;42.63;24.73;;;11.30;79.10;;;;;;5121991;28;20191;-88
2021/05/14 04:08:15;;;;;;;37.83;24.60;;;11.30;78.70;;;;;;5120868;28;20242;-88
2021/05/14 04:16:18;;;;;;;43.20;23.55;;;11.50;78.20;;;;;;5129049;28;20158;-87
2021/05/14 04:18:43;;;;;;;40.27;24.43;;;11.60;77.80;;;;;;5129660;28;20215;-87
2021/05/14 04:21:09;;;;;;;44.00;23.53;;;11.70;77.40;;;;;;5129454;28;20203;-88
2021/05/14 04:23:35;;;;;;;45.10;25.20;;;11.60;77.10;;;;;;5127985;28;20210;-86
2021/05/14 04:26:02;;;;;;;38.63;22.67;;;11.60;76.90;;;;;;5129237;28;20201;-86
2021/05/14 04:28:27;;;;;;;37.15;20.85;;;11.50;77.10;;;;;;5126611;28;20203;-86
2021/05/14 04:30:53;;;;;;;45.30;24.50;;;11.60;77.20;;;;;;5128498;28;20179;-85
2021/05/14 04:33:19;;;;;;;37.23;22.03;;;11.70;77.20;;;;;;5125272;28;20956;-86
2021/05/14 04:35:45;;;;;;;41.43;22.63;;;11.80;76.60;;;;;;5124860;28;20179;-86
2021/05/14 04:38:10;;;;;;;39.85;24.55;;;11.80;76.20;;;;;;5131527;28;20175;-86
2021/05/14 04:40:36;;;;;;;32.57;21.50;;;11.80;76.10;;;;;;5117210;28;20183;-86
2021/05/14 04:43:03;;;;;;;56.60;23.10;;;11.80;75.90;;;;;;5118439;28;20195;-86
2021/05/14 04:45:30;;;;;;;37.90;23.33;;;11.70;76.10;;;;;;5119500;28;20248;-88
2021/05/14 04:47:56;;;;;;;38.25;19.58;;;11.60;76.30;;;;;;5128732;28;20180;-87
2021/05/14 04:50:22;;;;;;;35.60;21.30;;;11.70;76.30;;;;;;5120557;28;20171;-85
2021/05/14 04:52:48;;;;;;;34.87;20.40;;;11.90;76.80;;;;;;5120455;28;20428;-85
2021/05/14 04:55:15;;;;;;;32.78;19.65;;;11.90;75.70;;;;;;5116970;28;20417;-86
2021/05/14 04:57:41;;;;;;;29.58;18.10;;;12.10;75.20;;;;;;5117521;28;20183;-86
2021/05/14 05:00:07;;;;;;;32.47;18.77;;;12.10;74.80;;;;;;5117665;28;20175;-86
2021/05/14 05:02:35;;;;;;;29.45;20.25;;;12.10;74.80;;;;;;5117840;28;20431;-87
2021/05/14 05:05:01;;;;;;;32.35;19.48;;;12.10;74.80;;;;;;5124662;28;20244;-86
2021/05/14 05:07:28;;;;;;;34.87;20.00;;;12.20;74.80;;;;;;5128599;28;20171;-86
2021/05/14 05:09:54;;;;;;;31.58;17.77;;;12.40;74.30;;;;;;5117714;28;20413;-87
2021/05/14 05:12:20;;;;;;;30.77;18.40;;;12.50;73.90;;;;;;5128145;28;20178;-85
2021/05/14 05:14:46;;;;;;;36.07;20.43;;;12.60;73.40;;;;;;5137561;28;20231;-88
2021/05/14 05:17:11;;;;;;;33.00;20.83;;;12.80;72.70;;;;;;5135448;28;20201;-89
2021/05/14 05:19:37;;;;;;;26.93;18.03;;;12.90;72.10;;;;;;5117463;28;20799;-86
2021/05/14 05:22:03;;;;;;;33.70;18.67;;;13.00;71.90;;;;;;5114691;28;20675;-86
2021/05/14 05:24:28;;;;;;;27.40;17.60;;;13.20;71.30;;;;;;5114072;28;20261;-87
2021/05/14 05:26:54;;;;;;;29.97;19.50;;;13.20;70.80;;;;;;5115587;28;20174;-87
2021/05/14 05:29:20;;;;;;;27.00;18.50;;;13.20;70.70;;;;;;5114867;28;20417;-87
2021/05/14 05:31:46;;;;;;;28.93;19.30;;;13.40;70.60;;;;;;5114334;28;20174;-88
2021/05/14 05:34:11;;;;;;;27.53;18.30;;;13.50;70.50;;;;;;5114584;28;20179;-87
2021/05/14 05:36:37;;;;;;;23.37;16.70;;;13.70;69.80;;;;;;5114927;28;20270;-86
2021/05/14 05:39:03;;;;;;;24.30;16.37;;;14.00;68.90;;;;;;5116081;28;20179;-86
2021/05/14 05:41:29;;;;;;;21.08;15.60;;;14.30;67.80;;;;;;5132730;28;20170;-86
2021/05/14 05:44:01;;;;;;;25.53;16.40;;;14.80;66.50;;;;;;5138910;27;20218;-85
2021/05/14 05:46:27;;;;;;;24.67;16.70;;;15.30;65.30;;;;;;5135335;28;20174;-89
2021/05/14 05:48:52;;;;;;;23.40;17.70;;;15.80;63.70;;;;;;5117072;28;20171;-89
2021/05/14 05:51:18;;;;;;;23.57;15.77;;;16.20;62.20;;;;;;5113912;28;20548;-89
2021/05/14 05:53:44;;;;;;;18.70;13.70;;;16.80;60.70;;;;;;5113650;28;20566;-88
2021/05/14 05:56:10;;;;;;;17.48;14.20;;;17.50;59.10;;;;;;5113624;28;20646;-88
2021/05/14 05:58:36;;;;;;;18.90;14.70;;;18.40;56.40;;;;;;5115363;28;20186;-87
2021/05/14 06:01:02;;;;;;;16.93;13.93;;;19.50;53.70;;;;;;5113439;28;20790;-88
2021/05/14 06:03:28;;;;;;;20.67;14.80;;;20.50;50.70;;;;;;5113562;28;20623;-87
2021/05/14 06:05:54;;;;;;;19.50;14.50;;;21.50;48.10;;;;;;5115452;28;20477;-89
2021/05/14 06:08:20;;;;;;;15.10;13.50;;;22.40;45.00;;;;;;5125303;28;20182;-89
2021/05/14 06:10:49;;;;;;;16.97;13.97;;;23.10;42.60;;;;;;5125694;28;20179;-87
2021/05/14 06:13:15;;;;;;;22.73;14.70;;;23.50;41.40;;;;;;5116557;28;20275;-88
2021/05/14 06:15:41;;;;;;;19.83;14.53;;;23.80;40.70;;;;;;5116303;28;20409;-86
2021/05/14 06:18:12;;;;;;;16.97;15.17;;;24.10;39.80;;;;;;5119259;28;20501;-86
2021/05/14 06:20:39;;;;;;;17.53;15.83;;;24.10;38.80;;;;;;5117465;28;20167;-88
2021/05/14 06:23:07;;;;;;;16.93;15.13;;;24.40;38.50;;;;;;5117130;28;20442;-89
2021/05/14 06:25:33;;;;;;;16.10;12.77;;;24.70;37.80;;;;;;5116469;28;20507;-89
2021/05/14 06:27:59;;;;;;;16.00;14.30;;;24.70;37.20;;;;;;5118850;28;20426;-89
2021/05/14 06:30:25;;;;;;;17.40;14.10;;;24.60;36.90;;;;;;5116961;28;20179;-90
2021/05/14 06:32:51;;;;;;;15.13;13.53;;;24.20;36.80;;;;;;5116286;28;20553;-91
2021/05/14 06:35:17;;;;;;;14.97;13.37;;;23.70;37.50;;;;;;5118122;28;20427;-91
2021/05/14 06:37:46;;;;;;;15.30;13.70;;;23.30;39.20;;;;;;5115580;28;20467;-88
2021/05/14 06:40:13;;;;;;;14.50;12.77;;;22.80;39.20;;;;;;5115183;28;20429;-88
2021/05/14 06:42:38;;;;;;;16.67;12.53;;;22.20;40.30;;;;;;5114389;28;20433;-87
2021/05/14 06:45:05;;;;;;;16.60;13.40;;;21.90;41.50;;;;;;5115298;28;20539;-86
2021/05/14 06:47:31;;;;;;;16.30;12.23;;;21.70;42.50;;;;;;5119282;28;20168;-87
2021/05/14 06:49:57;;;;;;;17.07;12.80;;;21.40;43.10;;;;;;5121736;28;20405;-87
2021/05/14 06:52:26;;;;;;;17.23;13.00;;;21.10;43.70;;;;;;5120940;28;20432;-87
2021/05/14 06:54:52;;;;;;;15.47;12.03;;;20.90;44.40;;;;;;5122520;28;20413;-87
2021/05/14 06:57:18;;;;;;;16.37;12.33;;;20.50;45.10;;;;;;5121644;28;20408;-87
2021/05/14 06:59:43;;;;;;;16.70;12.43;;;20.30;46.10;;;;;;5120761;28;20175;-86
2021/05/14 07:02:09;;;;;;;12.90;11.50;;;19.70;46.90;;;;;;5120691;28;20560;-87
2021/05/14 07:04:35;;;;;;;15.70;11.47;;;19.50;47.50;;;;;;5119823;28;20211;-87
2021/05/14 07:07:00;;;;;;;14.47;11.23;;;19.30;48.60;;;;;;5121477;28;20922;-87
2021/05/14 07:09:26;;;;;;;17.93;12.70;;;18.90;49.70;;;;;;5122360;28;20214;-88
2021/05/14 07:11:52;;;;;;;14.33;11.47;;;18.70;50.60;;;;;;5131319;28;20195;-87
2021/05/14 07:14:18;;;;;;;16.87;12.17;;;18.50;51.60;;;;;;5123803;28;20606;-87
2021/05/14 07:16:44;;;;;;;15.70;11.77;;;18.30;52.50;;;;;;5121648;28;20658;-87
2021/05/14 07:19:13;;;;;;;14.95;12.13;;;18.20;52.90;;;;;;5120543;28;20770;-87
2021/05/14 07:21:41;;;;;;;15.85;12.40;;;18.10;53.70;;;;;;5118397;28;20676;-88
2021/05/14 07:24:07;;;;;;;13.27;11.18;;;17.70;54.30;;;;;;5101920;28;20199;-88
2021/05/14 07:26:33;;;;;;;18.45;13.40;;;17.80;55.10;;;;;;5118747;28;20175;-88
2021/05/14 07:29:02;;;;;;;15.87;12.20;;;17.80;55.00;;;;;;5117686;28;20167;-88
2021/05/14 07:31:27;;;;;;;17.48;12.35;;;17.90;55.20;;;;;;5116453;28;20216;-88
2021/05/14 07:33:53;;;;;;;15.90;12.77;;;17.90;55.50;;;;;;5117534;28;20187;-88
2021/05/14 07:36:19;;;;;;;17.13;13.23;;;17.90;55.80;;;;;;5116692;28;20175;-88
2021/05/14 07:38:45;;;;;;;16.70;12.93;;;17.90;56.00;;;;;;5116478;28;20417;-88
2021/05/14 07:41:11;;;;;;;13.93;11.83;;;18.00;55.90;;;;;;5117371;28;20254;-88
2021/05/14 07:43:37;;;;;;;16.58;12.15;;;18.10;55.80;;;;;;5116921;28;20512;-88
2021/05/14 07:46:03;;;;;;;14.63;11.00;;;18.00;55.40;;;;;;5116393;28;20207;-88
2021/05/14 07:48:29;;;;;;;15.98;9.85;;;18.00;55.20;;;;;;5116995;28;20194;-87
2021/05/14 07:50:55;;;;;;;14.17;10.30;;;18.00;55.30;;;;;;5116475;28;20650;-87
2021/05/14 07:53:21;;;;;;;11.90;10.13;;;18.10;55.60;;;;;;5117469;28;20202;-87
2021/05/14 07:55:46;;;;;;;11.40;8.85;;;18.40;54.90;;;;;;5116856;28;20175;-88
2021/05/14 07:58:12;;;;;;;11.53;8.77;;;18.50;54.00;;;;;;5117077;28;20190;-88
2021/05/14 08:00:40;;;;;;;10.90;8.93;;;18.80;53.10;;;;;;5118742;28;20174;-87
2021/05/14 08:03:06;;;;;;;11.68;8.90;;;18.90;52.40;;;;;;5119445;28;20823;-87
2021/05/14 08:05:31;;;;;;;14.13;9.70;;;18.60;52.50;;;;;;5118187;28;20255;-90
2021/05/14 08:08:09;;;;;;;10.63;9.07;;;18.30;52.80;;;;;;5118400;28;20175;-88
2021/05/14 08:10:36;;;;;;;11.95;9.50;;;17.90;53.30;;;;;;5118927;28;20147;-86
2021/05/14 08:13:02;;;;;;;13.13;8.82;;;18.30;53.70;;;;;;5122423;28;20600;-87
2021/05/14 08:15:28;;;;;;;11.70;8.85;;;18.50;53.70;;;;;;5121032;28;20593;-87
2021/05/14 08:17:54;;;;;;;12.57;8.50;;;18.80;52.50;;;;;;5116706;28;20179;-88
2021/05/14 08:20:21;;;;;;;9.87;6.83;;;19.10;51.40;;;;;;5115704;28;20180;-87
2021/05/14 08:22:47;;;;;;;12.25;8.30;;;18.90;50.70;;;;;;5116285;28;20669;-88
2021/05/14 08:25:13;;;;;;;9.80;7.88;;;18.70;51.20;;;;;;5115477;28;20210;-88
2021/05/14 08:27:39;;;;;;;10.43;7.68;;;19.10;51.60;;;;;;5117171;28;20734;-87
2021/05/14 08:30:08;;;;;;;8.80;6.20;;;19.30;50.40;;;;;;5115551;28;20179;-88
2021/05/14 08:32:34;;;;;;;10.65;7.43;;;19.70;50.20;;;;;;5115504;28;20623;-89
2021/05/14 08:35:00;;;;;;;12.50;7.80;;;19.90;48.50;;;;;;5116258;28;20179;-88
2021/05/14 08:37:25;;;;;;;8.37;6.10;;;19.70;48.60;;;;;;5116194;28;20412;-88
2021/05/14 08:39:51;;;;;;;14.67;7.47;;;19.90;49.20;;;;;;5115466;28;20413;-89
2021/05/14 08:42:17;;;;;;;9.23;5.83;;;19.60;48.60;;;;;;5115608;28;20194;-88
2021/05/14 08:44:43;;;;;;;9.40;7.00;;;19.60;49.10;;;;;;5115460;28;20247;-87
2021/05/14 08:47:11;;;;;;;7.50;6.55;;;19.60;48.40;;;;;;5116684;28;20476;-87
2021/05/14 08:49:38;;;;;;;13.68;8.18;;;19.60;49.00;;;;;;5115277;28;20175;-88
2021/05/14 08:52:06;;;;;;;15.00;8.95;;;19.40;49.40;;;;;;5114945;28;20199;-88
2021/05/14 08:54:36;;;;;;;13.27;8.80;;;19.10;50.20;;;;;;5117769;28;20263;-86
2021/05/14 08:57:02;;;;;;;11.75;9.15;;;19.20;50.30;;;;;;5117595;28;20224;-87
2021/05/14 08:59:28;;;;;;;17.55;9.30;;;19.30;50.50;;;;;;5117142;28;20176;-87
2021/05/14 09:01:54;;;;;;;12.93;8.30;;;19.10;51.10;;;;;;5116435;28;20175;-86
2021/05/14 09:04:19;;;;;;;11.70;7.23;;;19.20;51.30;;;;;;5116345;28;20221;-86
2021/05/14 09:06:46;;;;;;;8.53;7.03;;;19.20;51.50;;;;;;5117072;28;20548;-87
2021/05/14 09:09:16;;;;;;;8.93;6.95;;;19.20;51.70;;;;;;5131321;28;20185;-87
2021/05/14 09:11:48;;;;;;;13.25;7.15;;;19.00;52.00;;;;;;5136258;28;20223;-86
2021/05/14 09:14:46;;;;;;;9.02;7.00;;;18.60;52.50;;;;;;5134059;28;20168;-87
2021/05/14 09:17:13;;;;;;;18.50;7.15;;;18.10;53.60;;;;;;5124405;28;20176;-88
2021/05/14 09:19:44;;;;;;;7.68;6.20;;;17.90;54.70;;;;;;5118442;28;20171;-88
2021/05/14 09:22:13;;;;;;;6.55;5.40;;;17.80;55.20;;;;;;5116616;28;20259;-88
2021/05/14 09:24:40;;;;;;;13.48;7.00;;;17.80;55.50;;;;;;5116280;28;20669;-88
2021/05/14 09:27:29;;;;;;;12.38;6.68;;;17.80;55.50;;;;;;5116935;28;20205;-88
2021/05/14 09:29:57;;;;;;;7.50;6.30;;;17.70;55.70;;;;;;5121149;28;20172;-88
2021/05/14 09:32:27;;;;;;;7.30;6.60;;;17.90;55.60;;;;;;5126282;28;20207;-88
2021/05/14 09:34:58;;;;;;;9.95;6.30;;;18.20;55.20;;;;;;5139215;28;20168;-87
2021/05/14 09:37:25;;;;;;;14.50;6.75;;;18.30;54.40;;;;;;5139074;28;20172;-89
2021/05/14 09:40:15;;;;;;;11.60;6.82;;;18.40;54.00;;;;;;5137765;28;20235;-88
2021/05/14 09:42:41;;;;;;;8.85;6.75;;;18.40;53.80;;;;;;5120956;28;20278;-88
2021/05/14 09:45:24;;;;;;;7.68;5.80;;;18.30;54.10;;;;;;5115948;28;20209;-88
2021/05/14 09:48:22;;;;;;;9.90;5.65;;;18.20;54.30;;;;;;5115027;28;20191;-88
2021/05/14 09:50:49;;;;;;;8.65;6.43;;;18.30;54.00;;;;;;5114335;28;20167;-88
2021/05/14 09:53:18;;;;;;;7.18;5.00;;;18.20;54.00;;;;;;5114076;28;20198;-89
2021/05/14 09:55:55;;;;;;;5.00;3.55;;;17.90;53.40;;;;;;5115222;28;20171;-88
2021/05/14 09:58:31;;;;;;;8.77;4.68;;;18.00;53.70;;;;;;5114261;28;20175;-88
2021/05/14 10:00:57;;;;;;;7.10;4.85;;;18.20;53.60;;;;;;5113436;28;20173;-89
2021/05/14 10:03:25;;;;;;;8.50;5.25;;;18.30;53.20;;;;;;5114487;28;20195;-88
2021/05/14 10:05:55;;;;;;;6.38;5.20;;;18.30;53.30;;;;;;5114546;28;20274;-88
2021/05/14 10:08:23;;;;;;;6.60;5.30;;;18.20;53.80;;;;;;5114198;28;20205;-88
2021/05/14 10:10:50;;;;;;;9.50;6.80;;;18.10;54.30;;;;;;5113898;28;20177;-88
2021/05/14 10:13:16;;;;;;;8.05;7.25;;;17.80;54.30;;;;;;5115010;28;20244;-88
2021/05/14 10:15:42;;;;;;;16.33;7.40;;;18.00;54.60;;;;;;5114000;28;20175;-88
2021/05/14 10:18:19;;;;;;;7.50;6.47;;;18.10;54.50;;;;;;5114593;28;20209;-88
2021/05/14 10:20:47;;;;;;;7.70;6.40;;;18.40;54.30;;;;;;5115497;28;20223;-88
2021/05/14 10:23:13;;;;;;;7.70;7.00;;;18.70;53.90;;;;;;5118695;27;20218;-88
2021/05/14 10:25:43;;;;;;;8.27;6.95;;;19.00;53.10;;;;;;5119988;28;20223;-89
2021/05/14 10:28:15;;;;;;;8.32;6.90;;;19.10;52.20;;;;;;5119779;28;20178;-88
2021/05/14 10:31:09;;;;;;;7.32;6.60;;;19.30;51.40;;;;;;5118482;28;20170;-89
2021/05/14 10:33:41;;;;;;;7.55;6.20;;;19.40;51.00;;;;;;5119131;28;20341;-88
2021/05/14 10:36:14;;;;;;;9.18;6.40;;;19.70;50.80;;;;;;5131497;28;20155;-89
2021/05/14 10:38:40;;;;;;;8.75;6.85;;;19.50;49.90;;;;;;5128106;28;20198;-89
2021/05/14 10:41:28;;;;;;;9.83;6.20;;;19.60;50.20;;;;;;5116667;28;20658;-89
2021/05/14 10:44:00;;;;;;;8.98;6.05;;;19.70;50.40;;;;;;5119327;28;20432;-89
2021/05/14 10:46:29;;;;;;;8.48;7.72;;;19.70;49.80;;;;;;5117306;28;20175;-89
2021/05/14 10:49:06;;;;;;;7.90;7.10;;;19.40;48.70;;;;;;5119418;28;20179;-88
2021/05/14 10:51:59;;;;;;;7.20;6.60;;;19.40;47.80;;;;;;5119117;28;20175;-89
2021/05/14 10:54:40;;;;;;;7.10;4.88;;;19.40;48.00;;;;;;5117795;28;20203;-89
2021/05/14 10:57:11;;;;;;;4.60;3.70;;;19.30;47.20;;;;;;5117592;28;20259;-89
2021/05/14 10:59:38;;;;;;;5.43;4.05;;;19.40;47.50;;;;;;5117781;28;20216;-89
2021/05/14 11:02:28;;;;;;;3.22;2.92;;;19.40;48.00;;;;;;5118092;28;20277;-89
2021/05/14 11:04:55;;;;;;;3.63;3.10;;;19.40;47.30;;;;;;5110661;28;20709;-89
2021/05/14 11:07:31;;;;;;;4.22;2.50;;;19.20;47.00;;;;;;5118697;28;20263;-89
2021/05/14 11:10:12;;;;;;;2.60;2.40;;;19.00;47.50;;;;;;5121479;28;20688;-86
2021/05/14 11:12:39;;;;;;;2.35;2.15;;;19.10;47.90;;;;;;5119449;28;20672;-88
2021/05/14 11:15:31;;;;;;;2.90;2.70;;;19.10;48.50;;;;;;5119652;28;20231;-87
2021/05/14 11:18:21;;;;;;;7.05;3.30;;;19.20;49.10;;;;;;5118708;28;20269;-87
2021/05/14 11:20:48;;;;;;;2.70;2.47;;;19.40;48.40;;;;;;5117807;28;20676;-88
2021/05/14 11:23:39;;;;;;;4.72;3.10;;;19.50;48.20;;;;;;5118359;28;20281;-88
2021/05/14 11:26:17;;;;;;;2.90;2.65;;;19.70;47.60;;;;;;5118095;28;20259;-87
2021/05/14 11:28:48;;;;;;;7.85;3.58;;;19.80;48.00;;;;;;5119850;28;20225;-88
2021/05/14 11:31:21;;;;;;;3.33;2.90;;;20.10;47.60;;;;;;5119132;28;20543;-89
2021/05/14 11:33:51;;;;;;;4.18;2.60;;;20.30;46.40;;;;;;5116461;28;20218;-88
2021/05/14 11:36:22;;;;;;;4.57;4.13;;;20.00;45.20;;;;;;5118962;28;20668;-88
2021/05/14 11:38:53;;;;;;;8.93;4.78;;;19.80;48.90;;;;;;5133676;28;20200;-89
2021/05/14 11:41:26;;;;;;;7.55;4.47;;;19.20;51.60;;;;;;5123260;28;20250;-88
2021/05/14 11:43:54;;;;;;;5.10;4.05;;;18.70;53.20;;;;;;5120547;28;20211;-89
2021/05/14 11:46:25;;;;;;;6.20;4.57;;;18.40;54.50;;;;;;5120032;28;20175;-89
2021/05/14 11:48:50;;;;;;;8.38;5.03;;;18.60;55.30;;;;;;5119278;28;20170;-89
2021/05/14 11:51:16;;;;;;;8.10;4.40;;;18.70;55.80;;;;;;5118936;28;20171;-89
2021/05/14 11:53:42;;;;;;;4.97;4.40;;;18.80;55.70;;;;;;5119246;28;20206;-89
2021/05/14 11:56:08;;;;;;;6.30;3.90;;;18.80;56.10;;;;;;5121757;28;20171;-89
2021/05/14 11:58:34;;;;;;;7.43;3.93;;;18.70;56.20;;;;;;5118771;28;20236;-89
2021/05/14 12:01:03;;;;;;;5.15;4.22;;;18.50;56.70;;;;;;5119449;28;20444;-89
2021/05/14 12:03:28;;;;;;;6.85;3.85;;;18.40;57.70;;;;;;5118843;28;20213;-88
2021/05/14 12:06:06;;;;;;;5.77;3.87;;;18.20;60.50;;;;;;5117438;28;20210;-88
2021/05/14 12:08:32;;;;;;;13.82;4.95;;;17.80;66.30;;;;;;5117938;28;20653;-88
2021/05/14 12:11:08;;;;;;;5.57;5.05;;;17.10;70.10;;;;;;5117930;28;20224;-88
2021/05/14 12:13:42;;;;;;;9.27;6.28;;;16.30;73.00;;;;;;5117904;28;20206;-88
2021/05/14 12:16:13;;;;;;;14.27;9.43;;;15.80;75.90;;;;;;5118010;28;20637;-89
2021/05/14 12:18:44;;;;;;;15.63;11.48;;;15.70;78.00;;;;;;5117050;28;20179;-88
2021/05/14 12:21:25;;;;;;;8.45;6.68;;;15.80;79.80;;;;;;5117581;28;20175;-88
2021/05/14 12:23:53;;;;;;;10.32;6.38;;;15.70;80.00;;;;;;5117040;28;20281;-88
2021/05/14 12:26:18;;;;;;;8.13;6.30;;;15.60;79.70;;;;;;5117330;28;20179;-88
2021/05/14 12:28:46;;;;;;;6.90;6.30;;;15.60;79.80;;;;;;5117247;28;20262;-88
2021/05/14 12:31:22;;;;;;;8.15;5.97;;;15.70;79.40;;;;;;5116690;28;20466;-88
2021/05/14 12:33:59;;;;;;;11.90;6.95;;;15.90;79.60;;;;;;5116969;28;20199;-88
2021/05/14 12:36:29;;;;;;;10.40;6.95;;;16.10;79.20;;;;;;5116653;28;20243;-89
2021/05/14 12:39:04;;;;;;;10.15;5.85;;;16.40;78.40;;;;;;5117371;28;20183;-88
2021/05/14 12:41:31;;;;;;;16.83;7.97;;;16.40;76.60;;;;;;5125877;28;20179;-88
2021/05/14 12:44:10;;;;;;;11.23;8.50;;;16.60;75.70;;;;;;5117061;28;20199;-88
2021/05/14 12:46:38;;;;;;;12.85;7.30;;;16.60;75.60;;;;;;5117056;28;20595;-88